Time;durP1;ratioP1;P1;durP2;ratioP2;P2;SDS_P1;SDS_P2;PMS_P1;PMS_P2;Temp;Humidity;BMP_temperature;BMP_pressure;BME280_temperature;BME280_humidity;BME280_pressure;Samples;Min_cycle;Max_cycle;Signal;HPM_P1;HPM_P2
2022/05/27 00:01:41;;;;;;;0.10;0.10;;;;;;;18.88;61.24;102054.50;5071730;28;20060;-80
2022/05/27 00:04:10;;;;;;;0.20;0.20;;;;;;;18.91;61.74;102049.03;5077719;28;20021;-80
2022/05/27 00:06:39;;;;;;;0.52;0.52;;;;;;;18.78;62.22;102069.16;5072305;28;20048;-80
2022/05/27 00:09:05;;;;;;;2.65;0.85;;;;;;;18.71;62.07;102058.63;5073535;28;20051;-79
2022/05/27 00:11:32;;;;;;;0.10;0.10;;;;;;;18.66;63.05;102060.59;5066843;28;20028;-79
2022/05/27 00:13:59;;;;;;;0.25;0.25;;;;;;;18.34;63.32;102070.59;5070000;28;20029;-80
2022/05/27 00:16:25;;;;;;;0.20;0.20;;;;;;;18.24;63.39;102066.47;5070183;28;20525;-77
2022/05/27 00:18:51;;;;;;;1.75;1.45;;;;;;;17.99;64.17;102080.66;5070969;28;20442;-78
2022/05/27 00:21:18;;;;;;;0.00;0.00;;;;;;;17.73;65.00;102076.97;5068002;28;20060;-77
2022/05/27 00:23:44;;;;;;;0.00;0.00;;;;;;;17.36;65.06;102075.38;5064951;28;20032;-78
2022/05/27 00:26:10;;;;;;;0.00;0.00;;;;;;;17.05;66.67;102089.63;5075135;28;20039;-78
2022/05/27 00:28:37;;;;;;;0.13;0.13;;;;;;;16.98;66.95;102093.38;5066805;28;20029;-80
2022/05/27 00:31:05;;;;;;;4.38;1.02;;;;;;;16.90;67.32;102064.13;5086562;28;20021;-78
2022/05/27 00:33:32;;;;;;;0.20;0.20;;;;;;;16.91;66.56;102073.94;5085918;28;20103;-79
2022/05/27 00:35:58;;;;;;;4.57;0.82;;;;;;;16.81;67.70;102083.13;5081734;28;20044;-78
2022/05/27 00:38:24;;;;;;;0.10;0.10;;;;;;;16.86;67.37;102074.94;5070562;28;20513;-79
2022/05/27 00:40:53;;;;;;;0.10;0.10;;;;;;;16.74;67.55;102066.31;5081310;28;20094;-79
2022/05/27 00:43:19;;;;;;;0.32;0.32;;;;;;;16.79;67.30;102075.09;5081958;28;20112;-79
2022/05/27 00:45:56;;;;;;;0.10;0.10;;;;;;;16.75;67.55;102078.78;5072475;28;20094;-79
2022/05/27 00:48:22;;;;;;;0.40;0.40;;;;;;;16.69;67.31;102073.59;5079543;28;20027;-79
2022/05/27 00:50:51;;;;;;;1.17;1.08;;;;;;;16.76;67.31;102074.31;5081223;28;20514;-79
2022/05/27 00:53:33;;;;;;;4.80;1.85;;;;;;;16.73;67.31;102075.28;5084751;28;20157;-79
2022/05/27 00:56:02;;;;;;;0.10;0.10;;;;;;;16.70;67.04;102063.75;5081523;28;20079;-79
2022/05/27 00:58:32;;;;;;;1.00;0.73;;;;;;;16.34;67.94;102062.00;5074765;28;20029;-78
2022/05/27 01:01:00;;;;;;;0.10;0.10;;;;;;;16.24;67.68;102060.47;5078335;28;20040;-79
2022/05/27 01:03:29;;;;;;;0.00;0.00;;;;;;;16.25;68.14;102055.09;5083085;28;20029;-79
2022/05/27 01:05:55;;;;;;;0.15;0.15;;;;;;;16.53;66.74;102057.06;5081349;28;20032;-79
2022/05/27 01:08:23;;;;;;;0.20;0.20;;;;;;;16.62;66.47;102055.94;5075666;28;20024;-79
2022/05/27 01:14:01;;;;;;;0.63;0.63;;;;;;;16.71;66.34;102049.47;5085202;28;20465;-79
2022/05/27 01:16:55;;;;;;;0.10;0.10;;;;;;;16.68;65.76;102045.06;5083112;28;20050;-80
2022/05/27 01:20:32;;;;;;;0.05;0.05;;;;;;;16.72;65.96;102057.44;5081399;28;20537;-80
2022/05/27 01:23:21;;;;;;;0.40;0.38;;;;;;;16.62;66.45;102061.28;5071774;28;20082;-80
2022/05/27 01:29:03;;;;;;;0.10;0.10;;;;;;;16.65;66.27;102059.41;5082335;28;20399;-80
2022/05/27 01:32:01;;;;;;;0.10;0.10;;;;;;;16.66;66.12;102053.16;4945921;28;20035;-80
2022/05/27 01:37:29;;;;;;;0.10;0.10;;;;;;;16.60;66.39;102069.38;5110679;27;20410;-79
2022/05/27 01:43:19;;;;;;;1.67;1.33;;;;;;;16.73;67.35;102059.22;5069453;28;20410;-78
2022/05/27 01:48:31;;;;;;;0.05;0.05;;;;;;;16.61;68.31;102059.53;5118704;27;20776;-78
2022/05/27 01:51:07;;;;;;;0.52;0.17;;;;;;;16.69;67.64;102041.50;5110496;28;20457;-78
2022/05/27 01:56:33;;;;;;;0.00;0.00;;;;;;;16.64;68.59;102040.72;5108498;27;20423;-83
2022/05/27 01:59:08;;;;;;;0.08;0.08;;;;;;;16.69;68.28;102049.50;5107023;28;20036;-84
2022/05/27 02:01:39;;;;;;;0.05;0.05;;;;;;;16.65;68.60;102045.16;5088058;28;20048;-84
2022/05/27 02:04:16;;;;;;;0.00;0.00;;;;;;;16.65;68.92;102045.16;5089689;28;20028;-84
2022/05/27 02:06:49;;;;;;;0.00;0.00;;;;;;;16.61;68.91;102043.47;5088364;28;20534;-84
2022/05/27 02:09:22;;;;;;;0.10;0.10;;;;;;;16.71;68.49;102046.78;5086737;28;20063;-84
2022/05/27 02:11:52;;;;;;;0.08;0.08;;;;;;;16.67;68.82;102046.00;5085144;28;20035;-83
2022/05/27 02:14:33;;;;;;;3.65;1.55;;;;;;;16.70;68.65;102048.59;5082996;28;20555;-84
2022/05/27 02:17:07;;;;;;;0.70;0.70;;;;;;;16.71;68.83;102045.00;5089544;28;20032;-84
2022/05/27 02:22:22;;;;;;;0.00;0.00;;;;;;;16.75;68.42;102041.31;5058256;28;20416;-79
2022/05/27 02:24:56;;;;;;;0.10;0.10;;;;;;;16.62;68.95;102046.13;5056982;28;20037;-80
2022/05/27 02:27:37;;;;;;;0.10;0.10;;;;;;;16.69;69.01;102041.50;5064707;28;20040;-81
2022/05/27 02:30:08;;;;;;;0.10;0.10;;;;;;;16.67;68.90;102056.69;5061709;28;20045;-81
2022/05/27 02:32:40;;;;;;;2.83;1.20;;;;;;;16.66;69.11;102055.81;5056912;28;20025;-81
2022/05/27 02:35:17;;;;;;;0.00;0.00;;;;;;;16.76;68.24;102044.88;5067943;28;20709;-81
2022/05/27 02:37:48;;;;;;;0.00;0.00;;;;;;;16.75;68.63;102043.13;5059016;28;20032;-81
2022/05/27 02:40:22;;;;;;;0.10;0.10;;;;;;;16.70;68.94;102045.94;5054460;28;20487;-81
2022/05/27 02:45:41;;;;;;;0.20;0.20;;;;;;;16.55;69.45;102043.63;5068150;27;20402;-81
2022/05/27 02:48:32;;;;;;;0.00;0.00;;;;;;;16.70;68.48;102050.38;5068610;28;20033;-81
2022/05/27 02:51:17;;;;;;;0.03;0.03;;;;;;;16.62;68.93;102046.13;5067630;28;20041;-81
2022/05/27 02:54:11;;;;;;;0.08;0.08;;;;;;;16.68;68.38;102049.56;5067060;28;20100;-80
2022/05/27 02:56:48;;;;;;;0.00;0.00;;;;;;;16.61;68.53;102047.03;5067773;28;20132;-80
2022/05/27 02:59:17;;;;;;;0.10;0.10;;;;;;;16.54;68.63;102047.25;5061695;28;20039;-80
2022/05/27 03:01:47;;;;;;;0.88;0.80;;;;;;;16.59;68.63;102042.66;5066787;28;20037;-80
2022/05/27 03:04:14;;;;;;;0.10;0.10;;;;;;;16.56;68.88;102056.09;5067568;28;20025;-81
2022/05/27 03:09:31;;;;;;;0.10;0.10;;;;;;;16.59;68.67;102051.56;5071482;28;20403;-79
2022/05/27 03:21:00;;;;;;;0.00;0.00;;;;;;;16.64;67.92;102054.13;5103126;27;20401;-78
2022/05/27 03:23:50;;;;;;;0.00;0.00;;;;;;;16.60;67.49;102047.09;5105372;28;20039;-78
2022/05/27 03:26:42;;;;;;;0.30;0.30;;;;;;;16.53;67.60;102057.06;5103718;28;20107;-78
2022/05/27 03:34:39;;;;;;;0.55;0.43;;;;;;;16.52;67.50;102057.09;5075741;28;20142;-78
2022/05/27 03:37:14;;;;;;;0.10;0.10;;;;;;;16.52;67.43;102059.78;5054544;28;20064;-78
2022/05/27 03:40:03;;;;;;;0.00;0.00;;;;;;;16.50;67.48;102060.69;5044308;28;20410;-78
2022/05/27 03:42:30;;;;;;;0.00;0.00;;;;;;;16.45;67.32;102059.94;5054609;28;20033;-78
2022/05/27 03:45:05;;;;;;;0.52;0.52;;;;;;;16.56;67.41;102048.06;5066172;28;20483;-78
2022/05/27 03:47:32;;;;;;;0.00;0.00;;;;;;;16.53;67.49;102062.41;5066112;28;20090;-78
2022/05/27 03:49:58;;;;;;;0.10;0.10;;;;;;;16.49;67.49;102068.75;5059609;28;20039;-78
2022/05/27 03:52:29;;;;;;;0.00;0.00;;;;;;;16.55;67.23;102075.75;5063689;28;20040;-78
2022/05/27 03:54:55;;;;;;;0.00;0.00;;;;;;;16.57;67.26;102068.56;5057278;28;20033;-79
2022/05/27 03:57:21;;;;;;;0.05;0.05;;;;;;;16.58;67.10;102073.00;5050829;28;20033;-79
2022/05/27 03:59:48;;;;;;;1.20;1.10;;;;;;;16.59;66.88;102077.44;5057609;28;20235;-79
2022/05/27 04:02:14;;;;;;;0.00;0.00;;;;;;;16.65;66.80;102063.91;5055719;28;20025;-79
2022/05/27 04:04:40;;;;;;;0.03;0.03;;;;;;;16.64;65.94;102075.53;5054612;28;20029;-79
2022/05/27 04:07:06;;;;;;;0.05;0.05;;;;;;;16.77;65.50;102068.94;5060835;28;20028;-78
2022/05/27 04:09:33;;;;;;;0.00;0.00;;;;;;;16.81;65.44;102072.41;5066647;28;20059;-78
2022/05/27 04:12:00;;;;;;;0.90;0.25;;;;;;;16.76;64.50;102074.31;5044825;28;20140;-78
2022/05/27 04:14:26;;;;;;;0.08;0.08;;;;;;;16.73;64.04;102067.25;5051480;28;20037;-79
2022/05/27 04:17:27;;;;;;;0.22;0.22;;;;;;;16.80;63.75;102076.88;5062463;28;20116;-79
2022/05/27 04:19:38;;;;;;;0.00;0.00;;;;;;;16.82;63.68;102069.69;5068039;28;20460;-79
2022/05/27 04:22:04;;;;;;;5.32;1.55;;;;;;;16.94;63.85;102083.69;5065633;28;20025;-79
2022/05/27 04:24:30;;;;;;;0.00;0.00;;;;;;;16.90;62.76;102082.88;5065910;28;21479;-79
2022/05/27 04:26:57;;;;;;;0.00;0.00;;;;;;;16.91;62.68;102083.72;5056927;28;20030;-78
2022/05/27 04:29:23;;;;;;;0.00;0.00;;;;;;;16.86;62.26;102069.59;5054182;28;20453;-78
2022/05/27 04:31:49;;;;;;;0.63;0.63;;;;;;;16.89;61.74;102074.88;5054757;28;20105;-78
2022/05/27 04:34:15;;;;;;;0.00;0.00;;;;;;;16.86;61.85;102072.28;5066839;28;20029;-78
2022/05/27 04:36:41;;;;;;;0.75;0.35;;;;;;;16.95;62.14;102069.41;5055234;28;20045;-79
2022/05/27 04:39:07;;;;;;;0.00;0.00;;;;;;;16.89;61.56;102074.88;5057914;28;20021;-79
2022/05/27 04:41:33;;;;;;;0.30;0.30;;;;;;;16.88;61.51;102075.78;5057050;28;20033;-79
2022/05/27 04:44:00;;;;;;;0.10;0.10;;;;;;;16.87;61.64;102071.34;5052108;28;20026;-79
2022/05/27 04:46:26;;;;;;;0.05;0.05;;;;;;;16.84;61.35;102077.66;5054996;28;20025;-79
2022/05/27 04:48:53;;;;;;;10.15;1.67;;;;;;;16.75;60.68;102076.13;5040685;28;20118;-79
2022/05/27 04:51:19;;;;;;;0.45;0.45;;;;;;;16.81;61.53;102086.66;5049221;28;20045;-79
2022/05/27 04:53:45;;;;;;;0.05;0.05;;;;;;;16.81;60.85;102088.47;5044826;28;20021;-79
2022/05/27 04:56:12;;;;;;;0.03;0.03;;;;;;;16.70;61.12;102094.09;5049880;28;20037;-78
2022/05/27 04:58:38;;;;;;;0.10;0.10;;;;;;;16.67;61.29;102091.47;5045519;28;20029;-79
2022/05/27 05:01:04;;;;;;;0.10;0.10;;;;;;;16.74;61.73;102101.13;5044297;28;20168;-79
2022/05/27 05:03:30;;;;;;;0.00;0.00;;;;;;;16.76;61.41;102101.97;5043905;28;20049;-79
2022/05/27 05:05:56;;;;;;;0.03;0.03;;;;;;;16.84;61.78;102098.22;5042536;28;20048;-81
2022/05/27 05:08:33;;;;;;;0.52;0.52;;;;;;;16.89;61.49;102094.47;5048432;28;20083;-80
2022/05/27 05:11:01;;;;;;;2.83;1.27;;;;;;;16.90;61.52;102093.56;5044921;28;20231;-80
2022/05/27 05:13:29;;;;;;;0.08;0.08;;;;;;;16.87;60.71;102098.13;5044606;28;20017;-80
2022/05/27 05:15:55;;;;;;;0.10;0.10;;;;;;;16.82;60.92;102104.47;5047770;28;20030;-80
2022/05/27 05:18:21;;;;;;;0.00;0.00;;;;;;;16.80;60.61;102109.00;5039677;28;20040;-82
2022/05/27 05:20:47;;;;;;;0.00;0.00;;;;;;;16.90;60.72;102115.00;5044472;28;20458;-81
2022/05/27 05:23:13;;;;;;;0.20;0.20;;;;;;;16.91;60.60;102119.47;5039864;28;20653;-80
2022/05/27 05:25:39;;;;;;;0.00;0.00;;;;;;;16.90;60.38;102108.75;5039684;28;20025;-80
2022/05/27 05:28:05;;;;;;;0.10;0.10;;;;;;;16.89;60.30;102107.88;5033894;28;20021;-81
2022/05/27 05:30:31;;;;;;;0.00;0.00;;;;;;;17.01;60.48;102112.06;5034515;28;20526;-81
2022/05/27 05:32:57;;;;;;;0.00;0.00;;;;;;;17.06;60.31;102120.84;5038976;28;20013;-81
2022/05/27 05:35:24;;;;;;;0.20;0.20;;;;;;;17.12;60.14;102126.03;5044906;28;20029;-79
2022/05/27 05:37:50;;;;;;;0.45;0.45;;;;;;;17.16;60.01;102120.59;5047253;28;20490;-80
2022/05/27 05:40:17;;;;;;;0.30;0.30;;;;;;;17.22;59.74;102120.41;5037536;28;20132;-78
2022/05/27 05:42:43;;;;;;;0.00;0.00;;;;;;;17.27;60.29;102134.56;5039450;28;20045;-82
2022/05/27 05:45:12;;;;;;;0.00;0.00;;;;;;;17.21;59.65;102135.63;5031566;28;20515;-79
2022/05/27 05:47:38;;;;;;;0.00;0.00;;;;;;;17.12;59.35;102126.03;5022483;28;20471;-79
2022/05/27 05:50:04;;;;;;;0.20;0.20;;;;;;;17.17;59.25;102131.28;5011127;28;20072;-79
2022/05/27 05:52:31;;;;;;;0.38;0.30;;;;;;;17.17;59.98;102135.75;5011425;28;20037;-80
2022/05/27 05:54:57;;;;;;;0.05;0.05;;;;;;;17.20;59.26;102131.19;5009378;28;20522;-80
2022/05/27 05:57:23;;;;;;;0.00;0.00;;;;;;;17.16;59.63;102126.84;5014245;28;20376;-80
2022/05/27 05:59:49;;;;;;;18.50;0.82;;;;;;;16.93;59.26;102140.81;5019414;28;20087;-79
2022/05/27 06:02:15;;;;;;;0.00;0.00;;;;;;;16.87;59.08;102140.94;5031216;28;20037;-79
2022/05/27 06:04:41;;;;;;;0.00;0.00;;;;;;;16.94;58.97;102147.94;5034221;28;20056;-79
2022/05/27 06:07:07;;;;;;;0.10;0.10;;;;;;;16.94;58.38;102153.31;5033528;28;20446;-79
2022/05/27 06:09:33;;;;;;;0.00;0.00;;;;;;;16.89;57.35;102163.22;5018914;28;20065;-79
2022/05/27 06:12:02;;;;;;;0.00;0.00;;;;;;;17.12;56.98;102155.50;5013142;28;20049;-80
2022/05/27 06:14:28;;;;;;;0.00;0.00;;;;;;;17.26;56.44;102152.44;5014690;28;20083;-79
2022/05/27 06:16:54;;;;;;;0.00;0.00;;;;;;;17.33;56.26;102144.25;5014250;28;20124;-79
2022/05/27 06:19:21;;;;;;;0.73;0.28;;;;;;;17.29;55.15;102148.81;5014058;28;20450;-79
2022/05/27 06:21:47;;;;;;;0.15;0.15;;;;;;;17.37;55.95;102146.81;5012330;28;20053;-79
2022/05/27 06:24:14;;;;;;;0.00;0.00;;;;;;;17.35;55.30;102145.94;5013012;28;20164;-79
2022/05/27 06:26:40;;;;;;;0.00;0.00;;;;;;;17.46;55.21;102151.88;5014488;28;20044;-79
2022/05/27 06:34:41;;;;;;;0.10;0.10;;;;;;;17.46;53.69;102167.97;5015152;28;20038;-79
2022/05/27 06:37:11;;;;;;;0.20;0.20;;;;;;;17.66;54.15;102163.84;5015456;28;20492;-79
2022/05/27 06:39:38;;;;;;;0.10;0.10;;;;;;;17.74;53.39;102174.34;5022427;28;20032;-79
2022/05/27 06:42:09;;;;;;;0.00;0.00;;;;;;;17.79;53.35;102170.63;5035394;28;20052;-79
2022/05/27 06:44:36;;;;;;;0.77;0.77;;;;;;;17.79;53.56;102162.56;5036010;28;20037;-79
2022/05/27 06:47:03;;;;;;;0.05;0.05;;;;;;;17.69;53.21;102169.09;5034693;28;20037;-79
2022/05/27 06:49:30;;;;;;;0.10;0.10;;;;;;;17.78;53.58;102174.22;5016470;28;20069;-79
2022/05/27 06:51:56;;;;;;;0.17;0.17;;;;;;;17.75;52.66;102179.66;5015693;28;20034;-80
2022/05/27 06:54:22;;;;;;;0.90;0.90;;;;;;;17.77;50.48;102179.63;5016247;28;20038;-80
2022/05/27 06:56:50;;;;;;;0.20;0.20;;;;;;;17.67;48.04;102187.06;5015915;28;20117;-80
2022/05/27 06:59:17;;;;;;;0.00;0.00;;;;;;;17.74;47.14;102187.75;5015597;28;20053;-80
2022/05/27 07:01:43;;;;;;;0.15;0.15;;;;;;;17.67;46.15;102192.41;5014485;28;20037;-80
2022/05/27 07:04:10;;;;;;;0.05;0.05;;;;;;;17.66;45.97;102185.28;5014692;28;20049;-79
2022/05/27 07:06:40;;;;;;;0.10;0.10;;;;;;;17.75;45.21;102192.19;5014046;28;20472;-79
2022/05/27 07:09:07;;;;;;;0.00;0.00;;;;;;;17.67;45.98;102184.38;5014880;28;20168;-79
2022/05/27 07:11:35;;;;;;;0.82;0.82;;;;;;;17.62;45.90;102184.50;5013290;28;20510;-79
2022/05/27 07:14:01;;;;;;;0.00;0.00;;;;;;;17.58;45.97;102188.19;5013251;28;20026;-80
2022/05/27 07:16:28;;;;;;;0.45;0.45;;;;;;;17.62;46.32;102194.34;5014376;28;20253;-79
2022/05/27 07:18:55;;;;;;;0.10;0.10;;;;;;;17.70;45.74;102191.44;5013857;28;20036;-79
2022/05/27 07:21:21;;;;;;;0.08;0.08;;;;;;;17.73;45.44;102204.75;5013425;28;20037;-80
2022/05/27 07:23:48;;;;;;;0.00;0.00;;;;;;;17.79;45.39;102205.47;5014003;28;20407;-79
2022/05/27 07:26:14;;;;;;;0.43;0.43;;;;;;;17.80;45.07;102198.28;5013971;28;20032;-79
2022/05/27 07:28:40;;;;;;;0.00;0.00;;;;;;;17.94;44.99;102203.28;5014380;28;20076;-79
2022/05/27 07:31:07;;;;;;;0.40;0.40;;;;;;;18.07;45.64;102202.00;5036495;23;20030;-88
2022/05/27 07:33:33;;;;;;;0.30;0.30;;;;;;;18.05;45.13;102214.56;4991486;28;20046;-87
2022/05/27 07:35:59;;;;;;;0.00;0.00;;;;;;;18.06;44.75;102207.41;4990608;28;20030;-88
2022/05/27 07:38:25;;;;;;;0.10;0.10;;;;;;;18.11;45.00;102198.28;4991819;28;20062;-87
2022/05/27 07:40:52;;;;;;;0.00;0.00;;;;;;;18.17;44.52;102213.34;5003842;28;20121;-88
2022/05/27 07:43:19;;;;;;;0.75;0.75;;;;;;;18.03;43.24;102213.75;5002124;28;20022;-88
2022/05/27 07:45:46;;;;;;;0.15;0.15;;;;;;;18.20;43.61;102218.59;5002029;28;20090;-88
2022/05/27 07:48:12;;;;;;;0.00;0.00;;;;;;;18.16;42.14;102221.44;5003202;28;20026;-88
2022/05/27 07:50:39;;;;;;;0.05;0.05;;;;;;;18.24;42.45;102224.75;4995591;28;20403;-88
2022/05/27 07:53:05;;;;;;;0.50;0.50;;;;;;;18.27;42.82;102219.31;4997673;28;20061;-89
2022/05/27 07:55:32;;;;;;;0.00;0.00;;;;;;;18.29;42.77;102217.44;5002435;28;20089;-89
2022/05/27 07:57:59;;;;;;;0.10;0.10;;;;;;;18.27;42.93;102224.69;5000946;28;20494;-89
2022/05/27 08:00:29;;;;;;;0.10;0.10;;;;;;;18.20;43.08;102233.81;4999934;28;20030;-89
2022/05/27 08:02:55;;;;;;;1.10;1.10;;;;;;;18.24;43.70;102222.06;4999836;28;20030;-89
2022/05/27 08:05:26;;;;;;;0.45;0.45;;;;;;;18.38;43.70;102233.28;4999503;28;20038;-88
2022/05/27 08:07:55;;;;;;;0.10;0.10;;;;;;;18.58;44.11;102232.66;4999739;28;20405;-88
2022/05/27 08:10:25;;;;;;;0.10;0.10;;;;;;;18.70;43.28;102228.69;4999711;28;20076;-89
2022/05/27 08:12:51;;;;;;;0.20;0.20;;;;;;;18.61;42.94;102218.25;5001739;28;20026;-89
2022/05/27 08:15:27;;;;;;;1.52;0.22;;;;;;;18.49;42.76;102221.31;5009101;28;20054;-88
2022/05/27 08:17:55;;;;;;;0.10;0.10;;;;;;;18.44;43.27;102216.09;5005920;28;20123;-88
2022/05/27 08:20:25;;;;;;;0.75;0.75;;;;;;;18.49;43.59;102229.38;5005690;28;20030;-88
2022/05/27 08:22:53;;;;;;;0.00;0.00;;;;;;;18.43;44.51;102204.47;5018312;28;20010;-89
2022/05/27 08:25:21;;;;;;;0.13;0.13;;;;;;;18.42;44.56;102217.97;5008034;28;20023;-89
2022/05/27 08:27:48;;;;;;;0.05;0.05;;;;;;;18.55;44.45;102222.00;5000803;28;20112;-89
2022/05/27 08:30:18;;;;;;;0.00;0.00;;;;;;;18.38;44.70;102221.63;4984134;28;20039;-89
2022/05/27 08:32:47;;;;;;;0.08;0.08;;;;;;;18.41;43.46;102226.94;4984751;28;20126;-89
2022/05/27 08:38:02;;;;;;;0.05;0.05;;;;;;;18.37;44.90;102230.66;4983258;28;20141;-89
2022/05/27 08:41:02;;;;;;;0.10;0.10;;;;;;;18.56;44.29;102236.31;4983617;28;20041;-89
2022/05/27 08:46:31;;;;;;;0.00;0.00;;;;;;;18.29;40.99;102244.28;5117936;27;1312046;-82
2022/05/27 08:49:03;;;;;;;0.10;0.10;;;;;;;18.20;40.43;102249.91;5114057;28;20048;-83
2022/05/27 08:51:57;;;;;;;0.10;0.10;;;;;;;18.21;40.59;102270.47;5114326;28;20043;-83
2022/05/27 08:54:29;;;;;;;0.00;0.00;;;;;;;18.29;40.80;102259.50;5114602;28;20059;-84
2022/05/27 09:02:39;;;;;;;0.10;0.10;;;;;;;18.39;40.62;102287.81;5115317;27;20418;-83
2022/05/27 09:05:15;;;;;;;0.10;0.10;;;;;;;18.63;40.74;102272.78;5115966;28;20070;-82
2022/05/27 09:11:12;;;;;;;3.92;1.75;;;;;;;18.56;41.23;102255.09;5118878;27;20422;-85
2022/05/27 09:13:56;;;;;;;0.13;0.13;;;;;;;18.58;40.87;102258.63;5094956;28;20043;-85
2022/05/27 09:16:48;;;;;;;0.08;0.08;;;;;;;18.73;41.39;102270.69;5102500;28;20062;-84
2022/05/27 09:25:20;;;;;;;0.00;0.00;;;;;;;18.52;40.65;102277.59;5069619;28;20904;-82
2022/05/27 09:30:42;;;;;;;0.00;0.00;;;;;;;18.58;39.95;102277.41;5130365;27;20926;-81
2022/05/27 09:33:14;;;;;;;0.45;0.45;;;;;;;18.58;39.67;102282.78;5132209;28;20523;-82
2022/05/27 09:36:01;;;;;;;0.10;0.10;;;;;;;18.70;39.66;102278.81;5135657;28;20039;-83
2022/05/27 09:38:30;;;;;;;0.10;0.10;;;;;;;18.67;39.67;102287.84;5117234;28;20051;-85
2022/05/27 09:41:23;;;;;;;0.08;0.08;;;;;;;18.87;40.07;102276.47;5113832;28;20027;-83
2022/05/27 09:43:58;;;;;;;0.25;0.20;;;;;;;18.96;40.37;102275.34;5114446;28;20031;-84
2022/05/27 09:46:29;;;;;;;0.10;0.10;;;;;;;18.84;41.17;102289.13;5113727;28;20024;-83
2022/05/27 09:48:57;;;;;;;0.10;0.10;;;;;;;18.80;40.28;102284.78;5114807;28;20024;-84
2022/05/27 09:51:25;;;;;;;0.85;0.85;;;;;;;18.74;40.31;102276.00;5113889;28;20028;-84
2022/05/27 09:53:58;;;;;;;0.00;0.00;;;;;;;18.79;40.31;102274.97;5114593;28;20032;-83
2022/05/27 09:56:43;;;;;;;0.00;0.00;;;;;;;19.11;40.13;102282.00;5115155;28;20539;-83
2022/05/27 09:59:33;;;;;;;0.10;0.10;;;;;;;19.04;39.05;102292.09;5114456;28;20012;-84
2022/05/27 10:05:15;;;;;;;0.00;0.00;;;;;;;19.34;38.32;102289.31;5114889;27;20785;-84
2022/05/27 10:07:49;;;;;;;0.00;0.00;;;;;;;19.26;39.09;102299.44;5114932;28;20069;-85
2022/05/27 10:12:57;;;;;;;0.00;0.00;;;;;;;19.52;40.38;102286.91;5094894;27;20397;-83
2022/05/27 10:15:28;;;;;;;0.65;0.65;;;;;;;19.47;41.02;102292.44;5094840;28;20494;-83
2022/05/27 10:17:54;;;;;;;0.17;0.17;;;;;;;19.34;41.51;102283.03;5094100;28;20028;-84
2022/05/27 10:20:31;;;;;;;1.20;1.13;;;;;;;19.05;41.64;102301.91;5094704;28;20463;-84
2022/05/27 10:23:02;;;;;;;1.58;1.13;;;;;;;18.84;42.17;102305.22;5073499;28;20083;-84
2022/05/27 10:25:34;;;;;;;0.70;0.70;;;;;;;18.77;42.42;102285.75;5073956;28;20031;-84
2022/05/27 10:28:00;;;;;;;0.17;0.17;;;;;;;18.94;42.14;102298.69;5073368;28;20029;-84
2022/05/27 10:30:29;;;;;;;0.30;0.30;;;;;;;19.01;41.59;102294.84;5073496;28;20025;-84
2022/05/27 10:33:11;;;;;;;0.00;0.00;;;;;;;19.01;41.92;102307.41;5073807;28;20441;-84
2022/05/27 10:35:38;;;;;;;0.10;0.10;;;;;;;19.34;42.44;102292.00;5073414;28;20098;-83
2022/05/27 10:38:32;;;;;;;0.10;0.10;;;;;;;19.45;41.85;102298.81;5073842;28;20028;-85
2022/05/27 10:41:21;;;;;;;0.10;0.10;;;;;;;19.11;41.77;102313.38;5093189;28;20032;-83
2022/05/27 10:46:32;;;;;;;1.20;0.77;;;;;;;18.69;41.14;102325.38;5113889;27;20404;-83
2022/05/27 10:51:58;;;;;;;0.10;0.10;;;;;;;18.88;41.14;102306.91;5114008;27;20387;-83
2022/05/27 10:55:04;;;;;;;4.07;0.68;;;;;;;19.06;39.50;102318.91;5114667;28;20040;-85
2022/05/27 11:06:08;;;;;;;1.23;0.85;;;;;;;18.97;38.10;102312.00;5050887;27;20396;-85
2022/05/27 11:08:50;;;;;;;0.00;0.00;;;;;;;19.07;37.90;102313.47;5051940;28;20058;-82
2022/05/27 11:11:43;;;;;;;1.55;0.98;;;;;;;18.97;37.27;102341.56;5050723;28;20047;-83
2022/05/27 11:26:14;;;;;;;0.10;0.10;;;;;;;19.40;36.70;102344.66;5074258;28;20397;-83
2022/05/27 11:31:30;;;;;;;0.10;0.10;;;;;;;19.77;36.95;102345.22;5070723;27;20052;-83
2022/05/27 11:42:38;;;;;;;0.98;0.98;;;;;;;19.80;35.79;102347.78;5123031;27;20398;-84
2022/05/27 11:51:07;;;;;;;0.10;0.10;;;;;;;19.63;35.21;102334.94;5122138;27;1183100;-84
2022/05/27 11:53:47;;;;;;;0.10;0.10;;;;;;;19.56;34.69;102340.53;5135773;28;20155;-85
2022/05/27 11:59:18;;;;;;;5.57;2.72;;;;;;;19.82;35.50;102337.88;5094238;27;20125;-83
2022/05/27 12:04:47;;;;;;;0.05;0.05;;;;;;;19.61;36.30;102351.09;5115299;27;20043;-84
2022/05/27 12:12:51;;;;;;;0.10;0.10;;;;;;;19.88;35.06;102348.44;5093056;27;20377;-83
2022/05/27 12:18:08;;;;;;;1.02;1.02;;;;;;;19.89;34.61;102352.91;5073259;28;20398;-85
2022/05/27 12:20:37;;;;;;;0.17;0.17;;;;;;;19.96;34.87;102373.28;5076935;28;20044;-85
2022/05/27 12:23:09;;;;;;;0.10;0.10;;;;;;;19.70;35.78;102369.63;5076082;28;20111;-85
2022/05/27 12:25:46;;;;;;;0.10;0.10;;;;;;;19.53;36.26;102369.31;5075959;28;20045;-85
2022/05/27 12:28:15;;;;;;;0.10;0.10;;;;;;;19.20;36.71;102356.06;5074929;28;20035;-84
2022/05/27 12:30:44;;;;;;;3.10;2.00;;;;;;;19.13;35.69;102373.28;5074989;28;20518;-86
2022/05/27 12:33:15;;;;;;;0.00;0.00;;;;;;;19.00;36.63;102384.41;5076205;28;20036;-84
2022/05/27 12:35:48;;;;;;;6.25;1.55;;;;;;;19.01;36.96;102378.13;5072435;28;20055;-85
2022/05/27 12:40:58;;;;;;;1.10;0.90;;;;;;;19.01;36.76;102372.75;5094383;27;1911495;-84
2022/05/27 12:48:45;;;;;;;0.00;0.00;;;;;;;19.76;35.86;102371.22;5116475;27;20334;-84
2022/05/27 12:53:57;;;;;;;0.00;0.00;;;;;;;19.99;35.00;102378.53;5111313;27;20901;-82
2022/05/27 13:05:15;;;;;;;0.40;0.40;;;;;;;19.27;37.42;102394.38;5110656;27;20373;-80
2022/05/27 13:13:06;;;;;;;0.47;0.47;;;;;;;19.31;37.39;102407.63;5093399;27;20869;-83
2022/05/27 13:18:48;;;;;;;0.10;0.10;;;;;;;19.02;38.23;102405.88;5072149;28;20397;-83
2022/05/27 13:21:52;;;;;;;0.10;0.10;;;;;;;19.05;37.39;102408.47;5056731;28;20041;-82
2022/05/27 13:29:45;;;;;;;0.15;0.15;;;;;;;19.70;36.23;102399.22;5115865;27;1194868;-81
2022/05/27 13:35:33;;;;;;;0.00;0.00;;;;;;;19.79;34.39;102399.81;5114282;27;1187628;-80
2022/05/27 13:38:01;;;;;;;0.10;0.10;;;;;;;19.78;35.28;102395.38;5117125;27;20113;-80
2022/05/27 13:40:32;;;;;;;0.30;0.30;;;;;;;19.69;36.41;102396.59;5111042;28;20350;-79
2022/05/27 13:43:07;;;;;;;0.10;0.10;;;;;;;19.88;37.14;102394.16;5109806;28;20055;-81
2022/05/27 13:46:02;;;;;;;0.10;0.10;;;;;;;19.86;36.38;102382.56;5112190;28;20041;-81
2022/05/27 13:48:44;;;;;;;0.55;0.55;;;;;;;20.06;35.12;102397.16;5111131;28;20028;-82
2022/05/27 13:51:13;;;;;;;0.03;0.03;;;;;;;19.64;35.63;102394.03;5110758;28;20535;-82
2022/05/27 13:53:41;;;;;;;0.00;0.00;;;;;;;19.50;36.99;102402.56;5110754;28;20031;-82
2022/05/27 13:56:37;;;;;;;6.88;0.68;;;;;;;19.45;37.53;102398.25;5110034;28;20118;-80
2022/05/27 13:59:10;;;;;;;0.00;0.00;;;;;;;19.14;37.91;102410.88;5108912;28;20489;-80
2022/05/27 14:10:17;;;;;;;1.42;0.70;;;;;;;20.15;36.81;102410.25;5081049;27;20419;-81
2022/05/27 14:12:44;;;;;;;0.05;0.05;;;;;;;20.40;36.87;102404.91;5076564;28;20046;-80
2022/05/27 14:15:24;;;;;;;1.85;1.55;;;;;;;20.78;35.50;102405.28;5090287;28;20028;-81
2022/05/27 14:17:52;;;;;;;0.08;0.08;;;;;;;20.79;35.48;102403.50;5090201;28;20032;-80
2022/05/27 14:23:26;;;;;;;0.00;0.00;;;;;;;20.17;35.99;102408.41;5089625;28;20033;-81
2022/05/27 14:26:01;;;;;;;0.70;0.70;;;;;;;20.63;35.66;102416.63;5091147;28;20107;-81
2022/05/27 14:28:47;;;;;;;0.50;0.50;;;;;;;20.79;35.50;102404.34;5091225;28;20036;-81
2022/05/27 14:34:00;;;;;;;0.10;0.10;;;;;;;20.99;34.41;102398.19;5117059;27;1194064;-79
2022/05/27 14:36:28;;;;;;;0.32;0.32;;;;;;;20.82;34.67;102416.81;5129814;27;20034;-79
2022/05/27 14:38:58;;;;;;;0.05;0.05;;;;;;;20.76;35.04;102409.88;5110176;28;20085;-79
2022/05/27 14:41:29;;;;;;;0.10;0.10;;;;;;;20.87;35.17;102414.81;5109079;28;20489;-79
2022/05/27 14:43:59;;;;;;;0.10;0.10;;;;;;;20.90;35.91;102422.81;5109713;28;20439;-79
2022/05/27 14:46:30;;;;;;;0.20;0.20;;;;;;;20.70;35.33;102420.84;5110870;28;20030;-81
2022/05/27 14:49:00;;;;;;;0.10;0.10;;;;;;;20.71;35.47;102419.94;5111033;28;20032;-81